Time;durP1;ratioP1;P1;durP2;ratioP2;P2;SDS_P1;SDS_P2;PMS_P1;PMS_P2;Temp;Humidity;BMP_temperature;BMP_pressure;BME280_temperature;BME280_humidity;BME280_pressure;Samples;Min_cycle;Max_cycle;Signal;HPM_P1;HPM_P2
2020/12/17 00:01:08;;;;;;;14.00;10.60;;;11.40;99.90;;;;;;5089824;28;20410;-74
2020/12/17 00:03:34;;;;;;;12.80;10.70;;;11.40;99.90;;;;;;5090739;28;20427;-75
2020/12/17 00:06:02;;;;;;;13.07;11.20;;;11.40;99.90;;;;;;5099566;28;20419;-75
2020/12/17 00:08:28;;;;;;;12.98;10.90;;;11.50;99.90;;;;;;5098534;28;20785;-75
2020/12/17 00:10:54;;;;;;;15.30;11.10;;;11.40;99.90;;;;;;5088020;28;20425;-74
2020/12/17 00:13:22;;;;;;;13.35;11.20;;;11.40;99.90;;;;;;5087857;28;20422;-75
2020/12/17 00:15:48;;;;;;;14.52;11.00;;;11.50;99.90;;;;;;5089361;28;20915;-75
2020/12/17 00:18:14;;;;;;;13.52;10.50;;;11.40;99.90;;;;;;5086546;28;20414;-75
2020/12/17 00:20:41;;;;;;;15.48;10.90;;;11.40;99.90;;;;;;5087577;28;20430;-75
2020/12/17 00:23:08;;;;;;;13.57;11.20;;;11.40;99.90;;;;;;5087490;28;20437;-75
2020/12/17 00:25:34;;;;;;;13.80;11.60;;;11.30;99.90;;;;;;5089695;28;20939;-75
2020/12/17 00:28:01;;;;;;;13.75;11.60;;;11.40;99.90;;;;;;5087202;28;20770;-76
2020/12/17 00:30:27;;;;;;;13.77;11.40;;;11.30;99.90;;;;;;5089155;28;20424;-75
2020/12/17 00:32:53;;;;;;;15.02;12.25;;;11.30;99.90;;;;;;5087370;28;20426;-75
2020/12/17 00:35:20;;;;;;;14.60;11.53;;;11.30;99.90;;;;;;5101839;28;20803;-75
2020/12/17 00:37:46;;;;;;;15.23;11.90;;;11.30;99.90;;;;;;5096797;28;20418;-75
2020/12/17 00:40:15;;;;;;;13.50;11.90;;;11.20;99.90;;;;;;5088983;28;20424;-76
2020/12/17 00:42:43;;;;;;;16.33;12.77;;;11.20;99.90;;;;;;5087343;28;20406;-76
2020/12/17 00:45:10;;;;;;;17.23;13.48;;;11.20;99.90;;;;;;5087998;28;20409;-76
2020/12/17 00:47:36;;;;;;;15.50;12.77;;;11.20;99.90;;;;;;5087696;28;20858;-75
2020/12/17 00:50:03;;;;;;;14.35;12.60;;;11.30;99.90;;;;;;5096658;28;20416;-74
2020/12/17 00:52:29;;;;;;;15.35;12.57;;;11.30;99.90;;;;;;5108250;28;20391;-75
2020/12/17 00:54:56;;;;;;;17.75;13.55;;;11.20;99.90;;;;;;5089233;28;20410;-74
2020/12/17 00:57:26;;;;;;;16.17;13.32;;;11.30;99.90;;;;;;5106277;28;20421;-74
2020/12/17 00:59:53;;;;;;;17.05;13.23;;;11.30;99.90;;;;;;5087914;28;20524;-73
2020/12/17 01:02:19;;;;;;;16.47;13.70;;;11.30;99.90;;;;;;5108907;28;20408;-75
2020/12/17 01:04:45;;;;;;;17.42;12.95;;;11.30;99.90;;;;;;5085446;28;20910;-73
2020/12/17 01:07:12;;;;;;;16.67;13.70;;;11.30;99.90;;;;;;5088869;28;20471;-74
2020/12/17 01:09:38;;;;;;;15.93;13.10;;;11.30;99.90;;;;;;5094326;28;20446;-74
2020/12/17 01:12:05;;;;;;;19.98;14.35;;;11.30;99.90;;;;;;5104321;28;20821;-74
2020/12/17 01:14:33;;;;;;;16.42;14.13;;;11.30;99.90;;;;;;5086816;28;20432;-74
2020/12/17 01:17:00;;;;;;;16.38;13.65;;;11.30;99.90;;;;;;5090144;28;20490;-74
2020/12/17 01:19:27;;;;;;;17.85;13.75;;;11.30;99.90;;;;;;5087908;28;20432;-74
2020/12/17 01:21:53;;;;;;;16.40;13.93;;;11.30;99.90;;;;;;5092914;28;20413;-74
2020/12/17 01:24:19;;;;;;;18.05;13.98;;;11.30;99.90;;;;;;5098908;28;21213;-74
2020/12/17 01:26:46;;;;;;;16.90;14.05;;;11.30;99.90;;;;;;5111384;28;20961;-74
2020/12/17 01:29:12;;;;;;;18.70;15.13;;;11.30;99.90;;;;;;5089457;28;20429;-75
2020/12/17 01:31:39;;;;;;;19.98;15.63;;;11.30;99.90;;;;;;5090421;28;20438;-74
2020/12/17 01:34:06;;;;;;;18.80;14.93;;;11.30;99.90;;;;;;5089006;28;20435;-75
2020/12/17 01:36:32;;;;;;;18.88;15.40;;;11.30;99.90;;;;;;5092048;28;20483;-74
2020/12/17 01:38:58;;;;;;;19.88;13.00;;;11.30;99.90;;;;;;5093935;28;20209;-75
2020/12/17 01:41:25;;;;;;;;;;;11.00;99.90;;;;;;5093934;28;20059;-74
2020/12/17 01:43:51;;;;;;;;;;;10.70;99.90;;;;;;5101387;28;19927;-75
2020/12/17 01:46:17;;;;;;;;;;;10.50;99.90;;;;;;5109582;28;20233;-74
2020/12/17 01:48:44;;;;;;;;;;;10.40;99.90;;;;;;5088763;28;19920;-74
2020/12/17 01:51:10;;;;;;;;;;;10.30;99.90;;;;;;5094055;28;19978;-74
2020/12/17 01:53:38;;;;;;;19.65;12.45;;;10.20;99.90;;;;;;5091430;28;20216;-74
2020/12/17 01:56:09;;;;;;;22.88;17.27;;;10.10;99.90;;;;;;5090644;28;20437;-73
2020/12/17 01:58:41;;;;;;;21.45;15.15;;;10.30;99.90;;;;;;5091071;28;20919;-74
2020/12/17 02:01:11;;;;;;;22.75;18.23;;;10.20;99.90;;;;;;5088999;28;20501;-73
2020/12/17 02:03:38;;;;;;;26.33;18.93;;;10.40;99.90;;;;;;5089736;28;20417;-74
2020/12/17 02:06:05;;;;;;;25.45;18.63;;;10.60;99.90;;;;;;5092052;28;21028;-74
2020/12/17 02:08:37;;;;;;;25.02;18.83;;;10.70;99.90;;;;;;5091678;28;20429;-74
2020/12/17 02:11:04;;;;;;;25.25;18.25;;;10.80;99.90;;;;;;5090542;28;20559;-74
2020/12/17 02:13:34;;;;;;;25.92;19.15;;;10.80;99.90;;;;;;5088577;28;20421;-74
2020/12/17 02:16:01;;;;;;;24.35;18.70;;;10.80;99.90;;;;;;5100366;28;20428;-74
2020/12/17 02:18:28;;;;;;;23.02;16.70;;;10.90;99.90;;;;;;5101746;28;20202;-75
2020/12/17 02:20:55;;;;;;;27.75;16.40;;;10.60;99.90;;;;;;5092569;28;20206;-74
2020/12/17 02:23:22;;;;;;;24.70;15.82;;;10.40;99.90;;;;;;5095883;28;20205;-74
2020/12/17 02:25:50;;;;;;;24.60;16.02;;;10.20;99.90;;;;;;5101785;28;20197;-74
2020/12/17 02:28:17;;;;;;;30.88;21.60;;;10.10;99.90;;;;;;5102585;28;20525;-74
2020/12/17 02:30:44;;;;;;;28.20;21.50;;;10.40;99.90;;;;;;5090043;28;21217;-74
2020/12/17 02:33:11;;;;;;;30.17;22.15;;;10.60;99.90;;;;;;5088158;28;20425;-74
2020/12/17 02:35:37;;;;;;;30.80;21.63;;;10.70;99.90;;;;;;5111704;28;20922;-75
2020/12/17 02:38:04;;;;;;;29.58;22.17;;;10.80;99.90;;;;;;5104209;28;20417;-74
2020/12/17 02:40:30;;;;;;;33.58;23.33;;;10.90;99.90;;;;;;5099718;28;20411;-74
2020/12/17 02:42:58;;;;;;;30.90;22.70;;;10.90;99.90;;;;;;5105546;28;20895;-74
2020/12/17 02:45:24;;;;;;;33.87;24.07;;;10.90;99.90;;;;;;5106961;28;20423;-73
2020/12/17 02:47:51;;;;;;;36.08;24.58;;;10.90;99.90;;;;;;5105186;28;20435;-73
2020/12/17 02:50:17;;;;;;;32.33;22.92;;;10.90;99.90;;;;;;5091071;28;20416;-74
2020/12/17 02:52:44;;;;;;;34.85;23.98;;;10.90;99.90;;;;;;5089484;28;20954;-74
2020/12/17 02:55:11;;;;;;;33.13;23.87;;;10.90;99.90;;;;;;5110620;28;20768;-74
2020/12/17 02:57:38;;;;;;;36.28;24.58;;;11.00;99.90;;;;;;5107952;28;20424;-75
2020/12/17 03:00:06;;;;;;;34.83;24.83;;;10.90;99.90;;;;;;5089281;28;20479;-74
2020/12/17 03:02:33;;;;;;;37.90;25.55;;;10.90;99.90;;;;;;5096145;28;20802;-74
2020/12/17 03:04:59;;;;;;;35.90;25.67;;;10.90;99.90;;;;;;5087071;28;20417;-74
2020/12/17 03:07:26;;;;;;;36.53;25.80;;;10.90;99.90;;;;;;5085534;28;20513;-74
2020/12/17 03:09:52;;;;;;;36.35;25.67;;;10.90;99.90;;;;;;5092302;28;20896;-74
2020/12/17 03:12:18;;;;;;;36.97;26.30;;;10.90;99.90;;;;;;5102765;28;20430;-74
2020/12/17 03:14:45;;;;;;;38.50;26.67;;;10.90;99.90;;;;;;5088490;28;20422;-74
2020/12/17 03:17:12;;;;;;;37.63;26.55;;;11.00;99.90;;;;;;5090492;28;20874;-74
2020/12/17 03:19:38;;;;;;;39.45;26.42;;;10.90;99.90;;;;;;5087721;28;20425;-75
2020/12/17 03:22:05;;;;;;;45.40;29.10;;;10.90;99.90;;;;;;5088169;28;20437;-74
2020/12/17 03:24:31;;;;;;;41.22;28.58;;;11.00;99.90;;;;;;5100825;28;20428;-74
2020/12/17 03:26:57;;;;;;;39.03;28.23;;;10.90;99.90;;;;;;5104564;28;20493;-74
2020/12/17 03:29:24;;;;;;;41.80;29.48;;;10.90;99.90;;;;;;5097040;28;20428;-73
2020/12/17 03:31:50;;;;;;;39.60;28.70;;;10.90;99.90;;;;;;5110699;28;20437;-74
2020/12/17 03:34:17;;;;;;;40.83;28.33;;;10.90;99.90;;;;;;5092587;28;21119;-73
2020/12/17 03:36:43;;;;;;;38.13;26.50;;;10.90;99.90;;;;;;5084201;28;20433;-73
2020/12/17 03:39:10;;;;;;;36.40;25.77;;;10.90;99.90;;;;;;5087182;28;20467;-73
2020/12/17 03:41:36;;;;;;;38.60;26.55;;;10.90;99.90;;;;;;5089816;28;20418;-73
2020/12/17 03:44:03;;;;;;;36.83;26.50;;;10.90;99.90;;;;;;5088140;28;20436;-73
2020/12/17 03:46:29;;;;;;;38.30;25.83;;;10.90;99.90;;;;;;5089867;28;20409;-73
2020/12/17 03:48:55;;;;;;;39.55;25.35;;;10.90;99.90;;;;;;5088165;28;20425;-73
2020/12/17 03:51:23;;;;;;;41.70;26.75;;;10.90;99.90;;;;;;5088616;28;20836;-74
2020/12/17 03:53:49;;;;;;;42.03;26.08;;;10.80;99.90;;;;;;5088170;28;20425;-73
2020/12/17 03:56:16;;;;;;;42.50;28.23;;;10.90;99.90;;;;;;5104844;28;20501;-74
2020/12/17 03:58:42;;;;;;;36.25;25.23;;;10.90;99.90;;;;;;5097839;28;20508;-74
2020/12/17 04:01:08;;;;;;;41.13;27.75;;;10.90;99.90;;;;;;5088502;28;20417;-74
2020/12/17 04:03:35;;;;;;;46.65;28.90;;;10.80;99.90;;;;;;5087770;28;20929;-74
2020/12/17 04:06:01;;;;;;;43.65;28.95;;;10.90;99.90;;;;;;5089515;28;20401;-74
2020/12/17 04:08:28;;;;;;;47.97;29.77;;;10.80;99.90;;;;;;5087315;28;20498;-74
2020/12/17 04:10:55;;;;;;;44.20;28.27;;;10.90;99.90;;;;;;5089324;28;20422;-73
2020/12/17 04:13:21;;;;;;;43.73;26.80;;;10.90;99.90;;;;;;5087995;28;20430;-74
2020/12/17 04:15:47;;;;;;;52.97;30.20;;;10.90;99.90;;;;;;5100630;28;20431;-74
2020/12/17 04:18:14;;;;;;;45.60;28.83;;;10.80;99.90;;;;;;5099783;28;20760;-74
2020/12/17 04:20:40;;;;;;;50.63;29.58;;;10.80;99.90;;;;;;5089244;28;20406;-73
2020/12/17 04:23:06;;;;;;;45.22;28.17;;;10.80;99.90;;;;;;5085676;28;20471;-74
2020/12/17 04:25:34;;;;;;;46.10;27.88;;;10.80;99.90;;;;;;5087993;28;20467;-74
2020/12/17 04:28:00;;;;;;;49.03;29.58;;;10.80;99.90;;;;;;5086905;28;20846;-74
2020/12/17 04:30:27;;;;;;;53.20;29.87;;;10.80;99.90;;;;;;5086741;28;20413;-73
2020/12/17 04:32:53;;;;;;;46.50;28.88;;;10.80;99.90;;;;;;5086314;28;20449;-73
2020/12/17 04:35:20;;;;;;;49.90;29.95;;;10.70;99.90;;;;;;5094884;28;20464;-73
2020/12/17 04:37:46;;;;;;;54.53;30.10;;;10.80;99.90;;;;;;5104096;28;20766;-73
2020/12/17 04:40:13;;;;;;;48.58;30.05;;;10.70;99.90;;;;;;5089114;28;20410;-73
2020/12/17 04:42:41;;;;;;;54.03;31.38;;;10.70;99.90;;;;;;5106190;28;20469;-74
2020/12/17 04:45:08;;;;;;;50.10;30.48;;;10.70;99.90;;;;;;5087618;28;20428;-73
2020/12/17 04:47:39;;;;;;;52.35;30.85;;;10.70;99.90;;;;;;5086482;28;20462;-72
2020/12/17 04:50:07;;;;;;;50.47;30.17;;;10.70;99.90;;;;;;5100545;28;20499;-74
2020/12/17 04:52:36;;;;;;;49.60;30.27;;;10.70;99.90;;;;;;5085480;28;20429;-74
2020/12/17 04:55:04;;;;;;;50.08;30.45;;;10.70;99.90;;;;;;5086678;28;20821;-75
2020/12/17 04:57:30;;;;;;;55.45;32.40;;;10.70;99.90;;;;;;5086756;28;20422;-74
2020/12/17 04:59:58;;;;;;;53.30;31.73;;;10.70;99.90;;;;;;5087629;28;20901;-75
2020/12/17 05:02:25;;;;;;;57.03;33.03;;;10.70;99.90;;;;;;5086834;28;20434;-74
2020/12/17 05:04:53;;;;;;;55.42;27.60;;;10.70;99.90;;;;;;5086918;28;20251;-75
2020/12/17 05:07:20;;;;;;;;;;;10.50;99.90;;;;;;5088635;28;20135;-73
2020/12/17 05:09:47;;;;;;;;;;;10.20;99.90;;;;;;5087217;28;19928;-76
2020/12/17 05:12:14;;;;;;;;;;;10.10;99.90;;;;;;5094584;28;19920;-76
2020/12/17 05:14:41;;;;;;;;;;;10.00;99.90;;;;;;5089276;28;19943;-75
2020/12/17 05:17:08;;;;;;;;;;;9.90;99.90;;;;;;5100950;28;20376;-76
2020/12/17 05:19:35;;;;;;;;;;;9.80;99.90;;;;;;5086110;28;19920;-76
2020/12/17 05:22:02;;;;;;;;;;;9.80;99.90;;;;;;5091721;28;19924;-77
2020/12/17 05:24:28;;;;;;;;;;;9.70;99.90;;;;;;5087196;28;20277;-76
2020/12/17 05:26:55;;;;;;;;;;;9.70;99.90;;;;;;5088281;28;19927;-75
2020/12/17 05:29:21;;;;;;;;;;;9.70;99.90;;;;;;5087034;28;19924;-76
2020/12/17 05:31:48;;;;;;;;;;;9.60;99.90;;;;;;5088416;28;19924;-77
2020/12/17 05:34:15;;;;;;;;;;;9.60;99.90;;;;;;5087603;28;20300;-75
2020/12/17 05:36:43;;;;;;;;;;;9.60;99.90;;;;;;5086718;28;20010;-77
2020/12/17 05:39:11;;;;;;;;;;;9.60;99.90;;;;;;5086357;28;19927;-79
2020/12/17 05:41:37;;;;;;;;;;;9.60;99.90;;;;;;5098699;28;19924;-78
2020/12/17 05:44:11;;;;;;;;;;;9.60;99.90;;;;;;5100241;28;19927;-78
2020/12/17 05:46:37;;;;;;;;;;;9.50;99.90;;;;;;5090532;28;19923;-77
2020/12/17 05:49:16;;;;;;;52.60;26.83;;;9.50;99.90;;;;;;5086341;28;20211;-78
2020/12/17 05:51:44;;;;;;;68.97;39.03;;;9.50;99.90;;;;;;5090785;28;21176;-78
2020/12/17 05:54:19;;;;;;;67.50;38.50;;;9.80;99.90;;;;;;5097872;28;20713;-77
2020/12/17 05:56:45;;;;;;;64.63;36.58;;;10.00;99.90;;;;;;5089321;28;20409;-76
2020/12/17 05:59:11;;;;;;;59.33;35.55;;;10.20;99.90;;;;;;5084511;28;20425;-77
2020/12/17 06:01:39;;;;;;;56.55;34.33;;;10.20;99.90;;;;;;5082370;28;20777;-77
2020/12/17 06:04:14;;;;;;;52.63;32.10;;;10.30;99.90;;;;;;5092178;28;20892;-76
2020/12/17 06:06:45;;;;;;;46.33;29.37;;;10.30;99.90;;;;;;5104937;28;20459;-77
2020/12/17 06:09:21;;;;;;;43.70;29.20;;;10.40;99.90;;;;;;5089274;28;20416;-77
2020/12/17 06:11:49;;;;;;;39.83;27.40;;;10.40;99.90;;;;;;5100729;28;20457;-78
2020/12/17 06:14:21;;;;;;;40.92;28.35;;;10.40;99.90;;;;;;5110605;28;20425;-77
2020/12/17 06:16:53;;;;;;;36.67;26.63;;;10.40;99.90;;;;;;5088652;28;20422;-77
2020/12/17 06:19:23;;;;;;;37.75;26.25;;;10.50;99.90;;;;;;5090002;28;20478;-77
2020/12/17 06:21:50;;;;;;;37.63;27.20;;;10.50;99.90;;;;;;5098868;28;20908;-77
2020/12/17 06:24:19;;;;;;;36.45;25.58;;;10.50;99.90;;;;;;5088648;28;20933;-80
2020/12/17 06:26:51;;;;;;;32.83;24.45;;;10.50;99.90;;;;;;5098111;28;20413;-78
2020/12/17 06:29:19;;;;;;;36.88;24.48;;;10.50;99.90;;;;;;5095640;28;20524;-78
2020/12/17 06:31:54;;;;;;;32.92;24.63;;;10.50;99.90;;;;;;5099844;28;20527;-80
2020/12/17 06:34:21;;;;;;;34.13;24.17;;;10.50;99.90;;;;;;5094339;28;20419;-81
2020/12/17 06:36:54;;;;;;;30.85;24.48;;;10.60;99.90;;;;;;5102603;28;20416;-78
2020/12/17 06:39:21;;;;;;;31.53;22.67;;;10.60;99.90;;;;;;5099304;28;20404;-79
2020/12/17 06:41:48;;;;;;;29.73;22.20;;;10.60;99.90;;;;;;5101829;28;20508;-78
2020/12/17 06:44:28;;;;;;;29.27;22.33;;;10.60;99.90;;;;;;5109666;28;20404;-77
2020/12/17 06:46:56;;;;;;;25.73;20.25;;;10.60;99.90;;;;;;5101353;28;21232;-76
2020/12/17 06:49:26;;;;;;;26.98;21.30;;;10.60;99.90;;;;;;5088013;28;20512;-77
2020/12/17 06:52:05;;;;;;;22.15;17.90;;;10.70;99.90;;;;;;5088400;28;20422;-76
2020/12/17 06:54:40;;;;;;;20.58;16.30;;;10.70;99.90;;;;;;5089233;28;20418;-77
2020/12/17 06:57:08;;;;;;;20.48;15.77;;;10.60;99.90;;;;;;5089230;28;20426;-77
2020/12/17 06:59:36;;;;;;;19.90;15.13;;;10.60;99.90;;;;;;5103701;28;20446;-77
2020/12/17 07:02:02;;;;;;;20.47;14.90;;;10.60;99.90;;;;;;5089848;28;20450;-77
2020/12/17 07:04:40;;;;;;;15.90;13.20;;;10.60;99.90;;;;;;5101673;28;20469;-77
2020/12/17 07:07:16;;;;;;;16.77;13.10;;;10.50;99.90;;;;;;5093517;28;20406;-79
2020/12/17 07:09:44;;;;;;;17.52;13.20;;;10.50;99.90;;;;;;5094454;28;20420;-79
2020/12/17 07:12:11;;;;;;;14.00;11.70;;;10.50;99.90;;;;;;5092907;28;20418;-75
2020/12/17 07:14:39;;;;;;;13.48;11.18;;;10.40;99.90;;;;;;5088789;28;20452;-75
2020/12/17 07:17:07;;;;;;;10.40;9.03;;;10.40;99.90;;;;;;5089007;28;20510;-76
2020/12/17 07:19:42;;;;;;;11.35;9.00;;;10.30;99.90;;;;;;5099499;28;20986;-75
2020/12/17 07:22:11;;;;;;;12.13;9.23;;;10.30;99.90;;;;;;5097268;28;20445;-76
2020/12/17 07:24:40;;;;;;;8.57;7.13;;;10.30;99.90;;;;;;5090361;28;20776;-80
2020/12/17 07:27:23;;;;;;;7.85;6.15;;;10.40;99.90;;;;;;5092181;28;20414;-75
2020/12/17 07:29:53;;;;;;;6.10;4.55;;;10.30;99.90;;;;;;5096605;28;20798;-80
2020/12/17 07:32:34;;;;;;;5.05;4.40;;;10.30;99.90;;;;;;5092012;28;20916;-79
2020/12/17 07:35:18;;;;;;;4.70;3.63;;;10.30;99.90;;;;;;5100133;28;20507;-80
2020/12/17 07:37:46;;;;;;;4.38;3.60;;;10.30;99.90;;;;;;5091110;28;20777;-78
2020/12/17 07:40:31;;;;;;;4.55;3.00;;;10.30;99.90;;;;;;5089008;28;20438;-77
2020/12/17 07:43:11;;;;;;;3.45;2.78;;;10.30;99.90;;;;;;5090113;28;20508;-79
2020/12/17 07:45:43;;;;;;;6.70;3.30;;;10.30;99.90;;;;;;5092414;28;20893;-77
2020/12/17 07:48:50;;;;;;;4.20;3.10;;;10.30;99.90;;;;;;5089582;28;20414;-77
2020/12/17 07:51:33;;;;;;;4.88;3.30;;;10.30;99.90;;;;;;5096026;28;20412;-73
2020/12/17 07:54:05;;;;;;;5.40;3.50;;;10.30;99.90;;;;;;5098226;28;20440;-75
2020/12/17 07:56:32;;;;;;;7.70;4.30;;;10.30;99.90;;;;;;5096889;28;20433;-77
2020/12/17 07:59:06;;;;;;;7.97;5.25;;;10.30;99.90;;;;;;5106705;28;20411;-75
2020/12/17 08:01:33;;;;;;;7.95;6.05;;;10.30;99.90;;;;;;5109464;28;20407;-78
2020/12/17 08:04:03;;;;;;;10.30;6.30;;;10.30;99.90;;;;;;5093939;28;20816;-78
2020/12/17 08:06:33;;;;;;;10.75;7.63;;;10.00;99.90;;;;;;5095888;28;20632;-76
2020/12/17 08:09:02;;;;;;;12.38;8.90;;;9.80;99.90;;;;;;5096507;28;20212;-75
2020/12/17 08:11:28;;;;;;;14.68;11.70;;;9.60;99.90;;;;;;5109754;28;20412;-75
2020/12/17 08:14:01;;;;;;;16.27;11.13;;;9.80;99.90;;;;;;5091924;28;20198;-75
2020/12/17 08:16:28;;;;;;;16.48;12.00;;;9.60;99.90;;;;;;5090751;28;20644;-76
2020/12/17 08:18:58;;;;;;;16.40;13.25;;;9.50;99.90;;;;;;5088830;28;20232;-75
2020/12/17 08:21:25;;;;;;;18.17;13.27;;;9.50;99.90;;;;;;5087682;28;20677;-75
2020/12/17 08:23:52;;;;;;;19.30;14.68;;;9.40;99.90;;;;;;5087284;28;20205;-75
2020/12/17 08:26:21;;;;;;;22.65;15.50;;;9.40;99.90;;;;;;5086989;28;20584;-74
2020/12/17 08:28:48;;;;;;;22.35;16.73;;;9.40;99.90;;;;;;5088552;28;20204;-74
2020/12/17 08:31:18;;;;;;;24.55;17.08;;;9.40;99.90;;;;;;5093671;28;20201;-75
2020/12/17 08:33:45;;;;;;;25.52;17.35;;;9.40;99.90;;;;;;5098759;28;20190;-74
2020/12/17 08:36:19;;;;;;;27.33;19.33;;;9.40;99.90;;;;;;5089111;28;20222;-74
2020/12/17 08:38:54;;;;;;;28.52;20.23;;;9.40;99.90;;;;;;5088181;28;20669;-74
2020/12/17 08:41:25;;;;;;;33.55;25.17;;;9.40;99.90;;;;;;5089073;28;20416;-74
2020/12/17 08:43:54;;;;;;;29.00;24.60;;;9.70;99.90;;;;;;5087475;28;20421;-74
2020/12/17 08:46:22;;;;;;;32.08;25.40;;;10.00;99.90;;;;;;5088979;28;20424;-74
2020/12/17 08:48:51;;;;;;;30.13;24.83;;;10.20;99.90;;;;;;5086927;28;20425;-74
2020/12/17 08:51:18;;;;;;;30.20;25.73;;;10.40;99.90;;;;;;5089196;28;20413;-74
2020/12/17 08:53:45;;;;;;;32.20;25.15;;;10.40;99.90;;;;;;5083826;28;21024;-74
2020/12/17 08:56:14;;;;;;;32.65;25.23;;;10.50;99.90;;;;;;5088903;28;20438;-74
2020/12/17 08:58:49;;;;;;;29.00;23.50;;;10.60;99.90;;;;;;5086908;28;20424;-74
2020/12/17 09:01:23;;;;;;;30.17;23.40;;;10.70;99.90;;;;;;5104985;28;20439;-74
2020/12/17 09:03:50;;;;;;;31.50;23.00;;;10.80;99.90;;;;;;5092060;28;20422;-74
2020/12/17 09:06:16;;;;;;;26.95;21.33;;;10.80;99.90;;;;;;5088893;28;20413;-74
2020/12/17 09:08:42;;;;;;;27.35;20.27;;;10.90;99.90;;;;;;5086580;28;20820;-74
2020/12/17 09:11:44;;;;;;;26.40;19.88;;;10.90;99.90;;;;;;5089266;28;20404;-74
2020/12/17 09:14:11;;;;;;;24.70;18.03;;;10.90;99.90;;;;;;5004408;28;20428;-74
2020/12/17 09:16:40;;;;;;;25.67;17.30;;;10.90;99.90;;;;;;5026592;28;20434;-74
2020/12/17 09:19:09;;;;;;;24.13;17.02;;;10.90;99.90;;;;;;5050903;28;20939;-74
2020/12/17 09:21:37;;;;;;;21.38;15.55;;;10.90;99.90;;;;;;5082917;28;20440;-74
2020/12/17 09:24:04;;;;;;;27.63;15.37;;;10.90;99.90;;;;;;5086459;28;20421;-74
2020/12/17 09:26:32;;;;;;;27.00;15.35;;;11.00;99.90;;;;;;5098583;28;20415;-74
2020/12/17 09:29:01;;;;;;;25.20;13.65;;;11.00;99.90;;;;;;5086626;28;20512;-74
2020/12/17 09:31:30;;;;;;;25.03;13.23;;;11.00;99.90;;;;;;5086563;28;20528;-74
2020/12/17 09:34:12;;;;;;;23.70;13.10;;;11.00;99.90;;;;;;5086749;28;20452;-74
2020/12/17 09:36:40;;;;;;;19.40;11.63;;;11.10;99.90;;;;;;5094590;28;20426;-74
2020/12/17 09:39:09;;;;;;;21.33;12.00;;;11.10;99.90;;;;;;5090641;28;20778;-74
2020/12/17 09:41:36;;;;;;;20.17;11.18;;;11.10;99.90;;;;;;5091248;28;20913;-74
2020/12/17 09:44:03;;;;;;;17.90;9.57;;;11.20;99.90;;;;;;5090071;28;20433;-74
2020/12/17 09:46:43;;;;;;;20.08;9.00;;;11.20;99.90;;;;;;5092643;28;20406;-74
2020/12/17 09:49:27;;;;;;;20.33;7.90;;;11.20;99.90;;;;;;5090907;28;20425;-74
2020/12/17 09:52:08;;;;;;;20.90;8.68;;;11.20;99.90;;;;;;5088480;28;20427;-74
2020/12/17 09:54:38;;;;;;;20.45;7.57;;;11.20;99.90;;;;;;5083679;28;20510;-74
2020/12/17 09:57:10;;;;;;;19.97;7.27;;;11.20;99.90;;;;;;5092459;28;20483;-74
2020/12/17 09:59:38;;;;;;;16.88;6.15;;;11.30;99.90;;;;;;5086987;28;20429;-74
2020/12/17 10:02:07;;;;;;;16.65;5.47;;;11.30;99.90;;;;;;5092395;28;20409;-74
2020/12/17 10:04:35;;;;;;;16.23;5.32;;;11.20;99.90;;;;;;5089491;28;21034;-74
2020/12/17 10:07:01;;;;;;;20.33;4.82;;;11.30;99.90;;;;;;5087906;28;20433;-74
2020/12/17 10:09:28;;;;;;;16.02;4.80;;;11.30;99.90;;;;;;5089570;28;20436;-74
2020/12/17 10:11:56;;;;;;;22.90;4.10;;;11.20;99.90;;;;;;5090745;28;20413;-74
2020/12/17 10:14:23;;;;;;;18.45;4.20;;;11.30;99.90;;;;;;5089455;28;20430;-74
2020/12/17 10:16:55;;;;;;;16.23;3.80;;;11.20;99.90;;;;;;5090532;28;20418;-74
2020/12/17 10:19:22;;;;;;;20.73;3.97;;;11.20;99.90;;;;;;5088582;28;20763;-74
2020/12/17 10:21:50;;;;;;;14.57;3.53;;;11.30;99.90;;;;;;5091937;28;20459;-74
2020/12/17 10:24:16;;;;;;;18.08;3.65;;;11.30;99.90;;;;;;5089979;28;20429;-75
2020/12/17 10:26:43;;;;;;;20.92;4.45;;;11.30;99.90;;;;;;5088899;28;21105;-74
2020/12/17 10:29:10;;;;;;;16.95;4.03;;;11.30;99.90;;;;;;5088705;28;20932;-76
2020/12/17 10:31:37;;;;;;;19.20;3.88;;;11.40;99.90;;;;;;5092082;28;20498;-76
2020/12/17 10:34:03;;;;;;;16.98;3.85;;;11.40;99.90;;;;;;5089733;28;20501;-75
2020/12/17 10:36:30;;;;;;;20.08;4.25;;;11.40;99.90;;;;;;5091752;28;20921;-76
2020/12/17 10:38:57;;;;;;;17.23;4.00;;;11.40;99.90;;;;;;5089375;28;20447;-75
2020/12/17 10:41:27;;;;;;;17.45;4.28;;;11.40;99.90;;;;;;5091745;28;20964;-74
2020/12/17 10:43:54;;;;;;;17.63;4.45;;;11.40;99.90;;;;;;5089575;28;20456;-76
2020/12/17 10:46:20;;;;;;;19.38;4.07;;;11.40;99.90;;;;;;5090133;28;20424;-76
2020/12/17 10:48:47;;;;;;;18.92;3.78;;;11.40;99.90;;;;;;5089272;28;20913;-75
2020/12/17 10:51:14;;;;;;;19.13;3.88;;;11.50;99.90;;;;;;5091520;28;20406;-76
2020/12/17 10:53:40;;;;;;;19.35;4.10;;;11.50;99.90;;;;;;5089905;28;20429;-76
2020/12/17 10:56:08;;;;;;;17.88;3.65;;;11.50;99.90;;;;;;5090878;28;20413;-76
2020/12/17 10:58:34;;;;;;;19.52;4.00;;;11.50;99.90;;;;;;5086860;28;20893;-75
2020/12/17 11:01:01;;;;;;;18.15;3.88;;;11.60;99.90;;;;;;5085943;28;20964;-75
2020/12/17 11:03:28;;;;;;;19.92;3.92;;;11.60;99.90;;;;;;5086819;28;20421;-74
2020/12/17 11:05:56;;;;;;;19.75;4.30;;;11.60;99.90;;;;;;5087061;28;20417;-74
2020/12/17 11:08:24;;;;;;;21.98;4.65;;;11.60;99.90;;;;;;5087512;28;20500;-76
2020/12/17 11:10:51;;;;;;;26.53;4.90;;;11.60;99.90;;;;;;5105128;28;20416;-75
2020/12/17 11:13:18;;;;;;;20.63;4.20;;;11.60;99.90;;;;;;5092640;28;20436;-74
2020/12/17 11:15:48;;;;;;;21.08;4.80;;;11.70;99.90;;;;;;5105182;28;20873;-75
2020/12/17 11:18:15;;;;;;;18.83;4.80;;;11.70;99.90;;;;;;5101559;28;20505;-74
2020/12/17 11:20:42;;;;;;;25.27;5.18;;;11.80;99.90;;;;;;5089354;28;20475;-75
2020/12/17 11:23:08;;;;;;;19.37;4.73;;;11.80;99.90;;;;;;5088734;28;20483;-75
2020/12/17 11:25:36;;;;;;;19.23;4.57;;;11.80;99.90;;;;;;5090727;28;20414;-75
2020/12/17 11:28:03;;;;;;;21.70;4.77;;;11.90;99.90;;;;;;5086200;28;20457;-75
2020/12/17 11:30:31;;;;;;;18.70;4.77;;;11.90;99.90;;;;;;5090254;28;20920;-75
2020/12/17 11:32:57;;;;;;;23.73;5.23;;;12.00;99.90;;;;;;5081501;28;20439;-75
2020/12/17 11:35:24;;;;;;;22.48;5.00;;;12.00;99.90;;;;;;5082182;28;22771;-75
2020/12/17 11:37:50;;;;;;;20.75;5.30;;;12.10;99.90;;;;;;5083829;28;20422;-76
2020/12/17 11:40:18;;;;;;;19.55;5.93;;;12.10;99.90;;;;;;5087319;28;20426;-75
2020/12/17 11:42:44;;;;;;;22.00;6.33;;;12.10;99.90;;;;;;5088391;28;20410;-75
2020/12/17 11:45:11;;;;;;;21.83;6.30;;;12.00;99.90;;;;;;5082556;28;20431;-75
2020/12/17 11:47:38;;;;;;;24.20;6.80;;;12.00;99.90;;;;;;5087569;28;20820;-75
2020/12/17 11:50:05;;;;;;;23.65;6.50;;;11.90;99.90;;;;;;5090192;28;20485;-75
2020/12/17 11:52:32;;;;;;;23.73;6.32;;;11.90;99.90;;;;;;5089204;28;20761;-75
2020/12/17 11:54:58;;;;;;;22.75;5.85;;;11.90;99.90;;;;;;5083866;28;20504;-75
2020/12/17 11:57:25;;;;;;;19.23;5.87;;;11.90;99.90;;;;;;5088599;28;20425;-75
2020/12/17 11:59:51;;;;;;;21.13;5.68;;;11.90;99.90;;;;;;5087504;28;20747;-75
2020/12/17 12:02:18;;;;;;;22.85;5.00;;;11.90;99.90;;;;;;5088341;28;20775;-75
2020/12/17 12:04:45;;;;;;;20.25;5.03;;;11.80;99.90;;;;;;5086628;28;20417;-75
2020/12/17 12:07:14;;;;;;;23.02;5.00;;;11.80;99.90;;;;;;5090036;28;20437;-74
2020/12/17 12:09:41;;;;;;;20.58;4.80;;;11.80;99.90;;;;;;5099748;28;20416;-74
2020/12/17 12:12:07;;;;;;;21.52;5.20;;;11.90;99.90;;;;;;5110202;28;20419;-74
2020/12/17 12:14:33;;;;;;;17.83;4.43;;;11.90;99.90;;;;;;5089860;28;20426;-74
2020/12/17 12:17:00;;;;;;;22.70;5.38;;;11.90;99.90;;;;;;5089550;28;20767;-74
2020/12/17 12:19:26;;;;;;;22.27;4.37;;;11.90;99.90;;;;;;5088076;28;20555;-74
2020/12/17 12:21:54;;;;;;;20.27;4.72;;;11.90;99.90;;;;;;5089516;28;20427;-74
2020/12/17 12:24:20;;;;;;;19.27;4.43;;;11.90;99.90;;;;;;5087628;28;20421;-74
2020/12/17 12:26:47;;;;;;;18.88;4.25;;;11.90;99.90;;;;;;5090383;28;20208;-74
2020/12/17 12:29:14;;;;;;;19.48;4.53;;;11.70;99.90;;;;;;5084746;28;20810;-74
2020/12/17 12:31:40;;;;;;;21.25;4.63;;;11.70;99.90;;;;;;5087932;28;20490;-74
2020/12/17 12:34:06;;;;;;;21.70;4.90;;;11.90;99.90;;;;;;5086447;28;20414;-74
2020/12/17 12:36:33;;;;;;;21.95;5.03;;;11.90;99.90;;;;;;5089280;28;20774;-74
2020/12/17 12:39:00;;;;;;;23.70;5.20;;;12.00;99.90;;;;;;5086993;28;20421;-74
2020/12/17 12:41:26;;;;;;;22.20;4.60;;;12.10;99.90;;;;;;5089345;28;20472;-74
2020/12/17 12:43:53;;;;;;;22.70;4.30;;;12.10;99.90;;;;;;5087467;28;20480;-74